Woodsetts, United Kingdom
Current Conditions -  °F | °C
As of 5:50 PM on Wednesday 28 Jan 2015 (Local Time) from EGCN Reporting Station
Few Clouds Few Clouds  
Wind Chill: 26°   Ceiling: Unl
Heat Index: 37°   Visibility: 6mi
Dew Point: 32°   Wind: 23mph
Humidity: 81%   Direction: 240°WSW
Pressure: 29.44"   Gusts: NA
Location:  53.35°N, 1.17°W
Report Text: EGCN 281750Z 24020KT 9999 FEW025 03/00 Q0997
Loading
Personal Weather Stations






























Interactive Weather Map New forecast layout! Learn more

10-Day Weather Forecast

Advertisements
Track Severe Weather on mobile